^^
Datos históricos de la estación: Murcia-Puente Tocinos
Diario Informe para Mayo 20, 2019 Unidades:  Ingés    Métrico   Ambas
Diario Semanal Mensual Anual
  Máxima: Mínima: Promedio:
Temperatura: 68.4 °F 60.3 °F 65.1 °F
Punto de rocio: 55.4 °F 51.6 °F 53.8 °F
Humedad: 76% 56.8% 67%
Velocidad viento: 5.4mph 0mph 2.7mph
Racha viento: 11mph - -
Viento- - Sur
Presión: 29.9 in 29.8 in -
Precipitación: 0.05 in    
 
 
Tabla de datos para Mayo 20, 2019
Hora Temperatura Punto de rocio Presión Viento Velocidad viento Racha viento Humedad Intensidad lluvia(por hora) Nubes
14:14 64.4 °F 55.4 °F 29.8 in NE 1.8 mph 1.8 mph 72.5% 0 in
14:19 64.6 °F 55 °F 29.8 in NE 1.8 mph 3.5 mph 71.5% 0 in
14:24 64.6 °F 55.2 °F 29.8 in ONO 1.8 mph 5.4 mph 71.8% 0 in
14:29 64.8 °F 55.2 °F 29.8 in ONO 1.8 mph 6.9 mph 71.4% 0 in
14:34 64.9 °F 55.4 °F 29.8 in NO 2.9 mph 7 mph 71.2% 0 in
14:39 64.9 °F 55 °F 29.8 in ONO 3.1 mph 6 mph 70.3% 0 in
14:44 64.9 °F 54.7 °F 29.8 in Oeste 3.1 mph 6 mph 69.6% 0 in
14:49 64.9 °F 54.9 °F 29.8 in Oeste 3.1 mph 5.8 mph 69.8% 0 in
14:54 64.9 °F 54.1 °F 29.8 in Sur 3.1 mph 6.9 mph 68.2% 0 in
14:59 64.9 °F 54 °F 29.8 in Sur 3.1 mph 7.4 mph 67.8% 0 in
15:04 65.1 °F 54.5 °F 29.8 in SSO 4.2 mph 8.1 mph 68.9% 0 in
15:09 64.9 °F 54.1 °F 29.8 in Sur 4.3 mph 8 mph 67.9% 0 in
15:14 65.3 °F 54.1 °F 29.8 in ESE 4 mph 6 mph 67.3% 0 in
15:19 65.5 °F 53.2 °F 29.8 in OSO 4 mph 9.2 mph 64.7% 0 in
15:24 65.7 °F 54 °F 29.8 in Oeste 3.7 mph 10.7 mph 65.9% 0 in
15:29 65.7 °F 54.3 °F 29.8 in ONO 3.6 mph 11 mph 66.9% 0 in
15:34 65.7 °F 54.7 °F 29.8 in NNO 4.2 mph 7.4 mph 67.5% 0 in
15:39 65.5 °F 55 °F 29.8 in ONO 4.3 mph 7 mph 69.1% 0 in
15:44 65.3 °F 55 °F 29.8 in Oeste 3.7 mph 7 mph 69.2% 0 in
15:49 65.1 °F 54.5 °F 29.8 in OSO 3.6 mph 7 mph 68.6% 0 in
15:54 65.1 °F 54.1 °F 29.8 in OSO 2.6 mph 5 mph 67.6% 0 in
15:59 65.3 °F 54.3 °F 29.8 in ONO 2.4 mph 5.2 mph 67.5% 0 in
16:04 65.5 °F 54.7 °F 29.8 in ONO 2.4 mph 5 mph 68.1% 0 in
16:09 65.5 °F 54.7 °F 29.8 in Oeste 2.4 mph 5 mph 68% 0 in
16:14 65.7 °F 54.7 °F 29.8 in ONO 2.1 mph 4.6 mph 67.9% 0 in
16:19 65.7 °F 54.7 °F 29.8 in Oeste 2 mph 6.9 mph 67.8% 0 in
16:24 65.7 °F 54.7 °F 29.8 in ONO 3.4 mph 7 mph 67.7% 0 in
16:29 65.7 °F 54.7 °F 29.8 in Oeste 3.6 mph 8.1 mph 67.3% 0 in
16:34 65.8 °F 54.5 °F 29.8 in Oeste 4.2 mph 8 mph 66.8% 0 in
16:39 66 °F 54.3 °F 29.8 in OSO 4.3 mph 7 mph 65.8% 0 in
16:44 66.4 °F 54.3 °F 29.8 in Sur 3.7 mph 7 mph 65% 0 in
16:49 66.6 °F 54 °F 29.8 in SSO 3.6 mph 5.2 mph 64.1% 0 in
16:54 66.7 °F 54 °F 29.8 in SSO 2.5 mph 5 mph 63.6% 0 in
16:59 67.1 °F 54 °F 29.8 in ESE 2.4 mph 4.6 mph 63% 0 in
17:04 67.3 °F 53.4 °F 29.8 in Sur 2.1 mph 5.9 mph 61.1% 0 in
17:09 67.5 °F 52.5 °F 29.8 in SO 2 mph 7.6 mph 59% 0 in
17:14 67.5 °F 52.2 °F 29.8 in Oeste 4 mph 8.1 mph 57.9% 0 in
17:19 67.5 °F 52 °F 29.8 in NNO 4.3 mph 6 mph 57.5% 0 in
17:24 67.6 °F 53.8 °F 29.8 in ENE 2.2 mph 4.6 mph 61.2% 0 in
17:29 67.6 °F 55.2 °F 29.8 in Sur 1.8 mph 5 mph 64.6% 0 in
17:34 67.5 °F 54.9 °F 29.8 in SSO 2.3 mph 5.8 mph 63.7% 0 in
17:39 67.5 °F 54.1 °F 29.8 in SO 2.4 mph 6 mph 62.3% 0 in
17:44 67.5 °F 53.2 °F 29.8 in ONO 2.4 mph 5 mph 60.2% 0 in
17:49 67.5 °F 52 °F 29.8 in Oeste 2.4 mph 5 mph 57.5% 0 in
17:54 67.6 °F 51.8 °F 29.8 in Oeste 1.9 mph 3 mph 56.8% 0 in
17:59 68.2 °F 52.2 °F 29.8 in Oeste 1.8 mph 4.6 mph 56.9% 0 in
18:04 68.4 °F 54.3 °F 29.8 in ESE 1.8 mph 5 mph 61% 0 in
18:09 68 °F 54.7 °F 29.8 in SE 1.8 mph 6.9 mph 62.3% 0 in
18:14 67.6 °F 55 °F 29.8 in SE 3.7 mph 8.5 mph 64.1% 0 in
18:19 67.3 °F 54.9 °F 29.8 in SE 4 mph 9 mph 64.6% 0 in
18:24 66.9 °F 54.5 °F 29.8 in SSE 4.6 mph 8 mph 64.1% 0 in
18:29 66.9 °F 54.3 °F 29.8 in SSE 4.7 mph 6.9 mph 64.1% 0 in
18:34 66.9 °F 54.3 °F 29.8 in SSE 4.1 mph 7 mph 64% 0 in
18:39 66.9 °F 54.1 °F 29.8 in Sur 4 mph 6 mph 63.5% 0 in
18:44 67.3 °F 54.3 °F 29.8 in SSO 3.2 mph 5 mph 63% 0 in
18:49 67.6 °F 53.8 °F 29.8 in OSO 3.1 mph 3.6 mph 61.2% 0 in
18:54 68 °F 53.8 °F 29.8 in SO 2.2 mph 5.4 mph 60.3% 0 in
18:59 68.2 °F 53.1 °F 29.8 in OSO 2 mph 6 mph 58.5% 0 in
19:04 68.2 °F 53.6 °F 29.8 in Oeste 3 mph 6 mph 59.7% 0 in
19:09 67.8 °F 53.4 °F 29.8 in Oeste 3.1 mph 5 mph 59.9% 0 in
19:14 67.6 °F 52.3 °F 29.8 in OSO 2.2 mph 5.9 mph 57.9% 0 in
19:19 67.5 °F 51.8 °F 29.8 in SO 2 mph 6 mph 56.9% 0 in
19:24 67.5 °F 51.6 °F 29.8 in Sur 2.7 mph 5.4 mph 56.8% 0 in
19:29 67.5 °F 52.2 °F 29.8 in SE 2.9 mph 6 mph 57.9% 0 in
19:34 67.3 °F 54 °F 29.8 in SE 3 mph 9.7 mph 62.1% 0 in
19:39 66.6 °F 54.5 °F 29.9 in SSE 3.1 mph 10 mph 65% 0 in
19:44 66 °F 54.3 °F 29.9 in Sur 5.1 mph 8.1 mph 65.9% 0 in
19:49 65.8 °F 53.8 °F 29.9 in SSO 5.4 mph 8 mph 65.2% 0 in
19:54 65.8 °F 53.8 °F 29.9 in SO 4.8 mph 7 mph 65% 0 in
19:59 65.8 °F 53.4 °F 29.9 in SO 4.7 mph 6 mph 64.3% 0 in
20:04 65.8 °F 53.2 °F 29.9 in SO 3.7 mph 6 mph 63.8% 0 in
20:09 65.8 °F 53.1 °F 29.9 in SSO 3.6 mph 6 mph 63% 0 in
20:14 66 °F 52.7 °F 29.9 in SSO 3.2 mph 6.2 mph 62.2% 0 in
20:19 66.2 °F 52.5 °F 29.9 in SSO 3.1 mph 6 mph 61.5% 0 in
20:24 66.4 °F 52.5 °F 29.9 in SSE 3.5 mph 6 mph 61.1% 0 in
20:29 66.4 °F 53.1 °F 29.9 in SE 3.6 mph 6.9 mph 62% 0 in
20:34 66 °F 53.4 °F 29.9 in SE 3.9 mph 7 mph 64.1% 0 in
20:39 65.5 °F 52.9 °F 29.9 in SSE 4 mph 6 mph 63.8% 0 in
20:44 65.3 °F 52.5 °F 29.9 in Sur 3.7 mph 6 mph 63.4% 0 in
20:49 65.1 °F 52.3 °F 29.9 in Sur 3.6 mph 5 mph 63.2% 0 in
20:54 65.1 °F 52.3 °F 29.9 in Sur 3 mph 5 mph 63.2% 0 in
20:59 65.1 °F 53.1 °F 29.9 in Sur 2.9 mph 3.6 mph 64.8% 0 in
21:04 65.1 °F 53.1 °F 29.9 in Sur 2.1 mph 4.6 mph 65% 0 in
21:09 65.1 °F 53.1 °F 29.9 in SSE 2 mph 5 mph 65.1% 0 in
21:14 65.1 °F 53.4 °F 29.9 in SSE 2.8 mph 5 mph 65.9% 0 in
21:19 65.1 °F 53.4 °F 29.9 in SSE 2.9 mph 4 mph 66.1% 0 in
21:24 64.9 °F 53.6 °F 29.9 in SSE 1.6 mph 2 mph 67% 0 in
21:29 64.8 °F 53.6 °F 29.9 in SSE 1.4 mph 2.4 mph 67.3% 0 in
21:34 64.6 °F 54 °F 29.9 in SSE 0.2 mph 3.1 mph 68.6% 0 in
21:39 64.2 °F 53.8 °F 29.9 in Calm   3.5 mph 69% 0 in
21:44 64 °F 54 °F 29.9 in NO 1.7 mph 3 mph 69.8% 0 in
21:49 63.7 °F 54.1 °F 29.9 in North 2 mph 4.7 mph 71% 0 in
21:54 63.1 °F 54 °F 29.9 in NE 2.4 mph 5 mph 72.1% 0 in
21:59 62.8 °F 54.1 °F 29.9 in North 2.4 mph 5 mph 73.3% 0 in
22:04 62.6 °F 54.1 °F 29.9 in NNE 2.4 mph 5 mph 74% 0 in
22:09 62.4 °F 54 °F 29.9 in NNE 2.4 mph 2.9 mph 74% 0 in
22:14 62.4 °F 54 °F 29.9 in NNE 1.6 mph 3.6 mph 73.7% 0 in
22:19 62.4 °F 54 °F 29.9 in NNE 1.4 mph 4 mph 74% 0 in
22:24 62.2 °F 53.8 °F 29.9 in NNE 1.9 mph 3.5 mph 73.8% 0 in
22:29 62.2 °F 53.4 °F 29.9 in NNE 2 mph 3 mph 73% 0 in
22:34 62.2 °F 53.6 °F 29.9 in NNE 1.5 mph   73.3% 0 in
22:39 62.1 °F 53.6 °F 29.9 in NNE 1.4 mph 1.4 mph 73.6% 0 in
22:44 62.2 °F 54 °F 29.9 in NNE 0.2 mph 1.4 mph 74.4% 0 in
22:49 62.2 °F 53.8 °F 29.9 in Calm   2.3 mph 74.1% 0 in
22:54 62.2 °F 53.6 °F 29.9 in Calm   2 mph 73.3% 0 in
22:59 62.2 °F 54 °F 29.9 in Calm   3.6 mph 74.2% 0 in
23:04 62.1 °F 53.4 °F 29.9 in NE 1.2 mph 4 mph 73.1% 0 in
23:09 62.1 °F 53.2 °F 29.9 in NE 1.4 mph 4 mph 72.9% 0 in
23:14 61.9 °F 53.2 °F 29.9 in ENE 1.7 mph 5 mph 73.2% 0 in
23:19 61.5 °F 53.1 °F 29.9 in ENE 1.8 mph 5 mph 73.5% 0 in
23:24 61.3 °F 52.5 °F 29.9 in ENE 2 mph 4.6 mph 72.9% 0 in
23:29 61.2 °F 52.3 °F 29.9 in Este 2 mph 5 mph 73% 0 in
23:34 61 °F 52.3 °F 29.9 in Este 2.4 mph 4.6 mph 73.2% 0 in
23:39 60.8 °F 52.5 °F 29.9 in Este 2.4 mph 5 mph 74% 0 in
23:44 60.6 °F 52.5 °F 29.9 in Este 2.1 mph 4 mph 74.7% 0 in
23:49 60.4 °F 52.7 °F 29.9 in Este 2 mph 4 mph 75.8% 0 in
23:54 60.4 °F 52.7 °F 29.9 in ESE 2 mph 5 mph 76% 0 in
23:59 60.3 °F 52.5 °F 29.9 in SSE 2 mph 7.4 mph 75.6% 0 in
Murcia-Puente Tocinos, España
Compliments of Weather Underground - 2 mb

La estación de MeteoMurcia.com, publica sus datos en los siguientes proyectos:

Weather Underground PWS IMURCIAP2 Meteoclimatic www.awekas.at

W3Counter
Web Analytics